Time;durP1;ratioP1;P1;durP2;ratioP2;P2;SDS_P1;SDS_P2;PMS_P1;PMS_P2;Temp;Humidity;BMP_temperature;BMP_pressure;BME280_temperature;BME280_humidity;BME280_pressure;Samples;Min_cycle;Max_cycle;Signal;HPM_P1;HPM_P2
2021/10/23 00:01:07;;;;;;;12.30;2.15;;;6.60;99.90;;;;;;5011455;28;20038;-69
2021/10/23 00:03:33;;;;;;;12.07;2.72;;;6.50;99.90;;;;;;5007838;28;20029;-69
2021/10/23 00:05:59;;;;;;;11.95;1.80;;;6.50;99.90;;;;;;5014618;28;20079;-70
2021/10/23 00:08:24;;;;;;;14.05;2.53;;;6.50;99.90;;;;;;5025795;28;20025;-71
2021/10/23 00:10:50;;;;;;;12.70;1.88;;;6.40;99.90;;;;;;5016425;28;20438;-69
2021/10/23 00:13:16;;;;;;;9.70;1.67;;;6.40;99.90;;;;;;5008844;28;20028;-69
2021/10/23 00:15:41;;;;;;;7.70;1.40;;;6.40;99.90;;;;;;5020015;28;20093;-70
2021/10/23 00:18:07;;;;;;;26.33;2.47;;;6.40;99.90;;;;;;5011405;28;20026;-69
2021/10/23 00:20:33;;;;;;;9.43;1.90;;;6.40;99.90;;;;;;5017349;28;20147;-70
2021/10/23 00:22:58;;;;;;;10.40;1.98;;;6.40;99.90;;;;;;5019866;28;20084;-71
2021/10/23 00:25:24;;;;;;;17.88;1.80;;;6.40;99.90;;;;;;5011922;28;20054;-70
2021/10/23 00:27:50;;;;;;;7.25;1.33;;;6.40;99.90;;;;;;5012081;28;20030;-70
2021/10/23 00:30:16;;;;;;;13.15;2.08;;;6.40;99.90;;;;;;5020479;28;20038;-71
2021/10/23 00:32:42;;;;;;;10.13;1.63;;;6.40;99.90;;;;;;5011890;28;20032;-70
2021/10/23 00:35:09;;;;;;;17.42;1.80;;;6.40;99.90;;;;;;5011249;28;20057;-70
2021/10/23 00:37:35;;;;;;;15.30;2.50;;;6.40;99.90;;;;;;5012481;28;20108;-70
2021/10/23 00:40:01;;;;;;;10.43;1.70;;;6.40;99.90;;;;;;5018292;28;20029;-70
2021/10/23 00:42:26;;;;;;;11.48;1.58;;;6.50;99.90;;;;;;5011234;28;20637;-69
2021/10/23 00:44:52;;;;;;;10.85;2.17;;;6.50;99.90;;;;;;5013157;28;20033;-70
2021/10/23 00:47:20;;;;;;;14.38;2.03;;;6.50;99.90;;;;;;5016474;28;20503;-70
2021/10/23 00:49:48;;;;;;;10.35;1.75;;;6.50;99.90;;;;;;5010312;28;20030;-71
2021/10/23 00:52:14;;;;;;;8.80;1.67;;;6.40;99.90;;;;;;5019984;28;20637;-70
2021/10/23 00:54:40;;;;;;;8.45;1.45;;;6.40;99.90;;;;;;5014741;28;20527;-70
2021/10/23 00:57:06;;;;;;;11.73;1.48;;;6.40;99.90;;;;;;5020092;28;20029;-69
2021/10/23 00:59:34;;;;;;;9.52;1.85;;;6.50;99.90;;;;;;5022775;28;20068;-70
2021/10/23 01:02:00;;;;;;;15.48;1.83;;;6.50;99.90;;;;;;5025445;28;20072;-69
2021/10/23 01:04:26;;;;;;;12.23;2.30;;;6.50;99.90;;;;;;5021139;28;20105;-70
2021/10/23 01:06:53;;;;;;;9.35;1.70;;;6.50;99.90;;;;;;5011221;28;20014;-71
2021/10/23 01:09:19;;;;;;;10.02;1.45;;;6.50;99.90;;;;;;5020519;28;20041;-71
2021/10/23 01:11:46;;;;;;;9.73;1.58;;;6.50;99.90;;;;;;5019126;28;20547;-70
2021/10/23 01:14:24;;;;;;;7.35;1.45;;;6.50;99.90;;;;;;5015721;28;20038;-70
2021/10/23 01:16:52;;;;;;;5.60;1.20;;;6.50;99.90;;;;;;5016525;28;20045;-70
2021/10/23 01:19:18;;;;;;;7.10;1.75;;;6.50;99.90;;;;;;5010378;28;20034;-69
2021/10/23 01:21:47;;;;;;;6.20;1.30;;;6.50;99.90;;;;;;5013533;28;20026;-69
2021/10/23 01:24:13;;;;;;;11.48;1.40;;;6.50;99.90;;;;;;5021208;28;20038;-70
2021/10/23 01:26:39;;;;;;;9.43;1.42;;;6.50;99.90;;;;;;5018594;28;20060;-70
2021/10/23 01:29:08;;;;;;;12.93;2.17;;;6.50;99.90;;;;;;5019656;28;20065;-70
2021/10/23 01:31:34;;;;;;;9.55;1.67;;;6.50;99.90;;;;;;5016064;28;20049;-69
2021/10/23 01:34:16;;;;;;;8.63;1.23;;;6.50;99.90;;;;;;5018216;28;20383;-69
2021/10/23 01:36:46;;;;;;;10.82;2.08;;;6.50;99.90;;;;;;5014126;28;20025;-70
2021/10/23 01:39:12;;;;;;;9.13;1.63;;;6.50;99.90;;;;;;5022514;28;20025;-69
2021/10/23 01:41:39;;;;;;;11.98;1.75;;;6.60;99.90;;;;;;5013204;28;20036;-69
2021/10/23 01:44:08;;;;;;;9.32;1.33;;;6.60;99.90;;;;;;5012212;28;20032;-69
2021/10/23 01:46:34;;;;;;;10.40;1.75;;;6.60;99.90;;;;;;5016053;28;20109;-70
2021/10/23 01:48:59;;;;;;;8.20;1.48;;;6.60;99.90;;;;;;5019952;28;20152;-71
2021/10/23 01:51:26;;;;;;;6.20;1.52;;;6.60;99.90;;;;;;5013495;28;20361;-69
2021/10/23 01:53:51;;;;;;;7.18;1.40;;;6.50;99.90;;;;;;5018493;28;20026;-71
2021/10/23 01:56:17;;;;;;;10.05;1.50;;;6.50;99.90;;;;;;5019833;28;20042;-69
2021/10/23 01:58:43;;;;;;;7.32;1.50;;;6.50;99.90;;;;;;5020825;28;20022;-69
2021/10/23 02:01:08;;;;;;;7.75;1.80;;;6.50;99.90;;;;;;5013920;28;20097;-69
2021/10/23 02:03:34;;;;;;;9.38;1.52;;;6.50;99.90;;;;;;5013874;28;20018;-70
2021/10/23 02:06:00;;;;;;;11.80;1.40;;;6.50;99.90;;;;;;5019375;28;20030;-71
2021/10/23 02:08:25;;;;;;;13.70;1.63;;;6.50;99.90;;;;;;5014122;28;20026;-69
2021/10/23 02:10:51;;;;;;;18.63;3.47;;;6.50;99.90;;;;;;5014746;28;20078;-71
2021/10/23 02:13:16;;;;;;;6.30;1.10;;;6.50;99.90;;;;;;5023145;28;20037;-69
2021/10/23 02:15:42;;;;;;;8.07;1.88;;;6.60;99.90;;;;;;5025140;28;20046;-70
2021/10/23 02:18:08;;;;;;;11.10;1.73;;;6.60;99.90;;;;;;5014384;28;20069;-69
2021/10/23 02:20:34;;;;;;;12.30;1.83;;;6.60;99.90;;;;;;5014073;28;20036;-69
2021/10/23 02:23:01;;;;;;;7.22;1.33;;;6.60;99.90;;;;;;5014290;28;20034;-69
2021/10/23 02:25:27;;;;;;;8.52;1.58;;;6.60;99.90;;;;;;5016536;28;20450;-72
2021/10/23 02:27:52;;;;;;;7.00;1.30;;;6.60;99.90;;;;;;5013234;28;20096;-70
2021/10/23 02:30:19;;;;;;;13.57;2.10;;;6.60;99.90;;;;;;5010058;28;20033;-70
2021/10/23 02:32:44;;;;;;;15.85;2.28;;;6.60;99.90;;;;;;5013860;28;20037;-69
2021/10/23 02:35:10;;;;;;;10.13;1.65;;;6.60;99.90;;;;;;5014685;28;20023;-70
2021/10/23 02:37:36;;;;;;;12.20;1.65;;;6.60;99.90;;;;;;5018587;28;20883;-69
2021/10/23 02:40:03;;;;;;;12.45;1.92;;;6.60;99.90;;;;;;5017661;28;20021;-69
2021/10/23 02:42:29;;;;;;;6.82;1.40;;;6.60;99.90;;;;;;5012563;28;20032;-69
2021/10/23 02:44:55;;;;;;;14.50;1.83;;;6.70;99.90;;;;;;5015225;28;20026;-71
2021/10/23 02:47:20;;;;;;;8.13;2.03;;;6.80;99.90;;;;;;5024076;28;20029;-69
2021/10/23 02:49:46;;;;;;;14.82;1.77;;;6.80;99.90;;;;;;5026168;28;20120;-69
2021/10/23 02:52:12;;;;;;;8.90;1.23;;;6.90;99.90;;;;;;5018312;28;20025;-69
2021/10/23 02:54:37;;;;;;;6.63;1.25;;;6.90;99.90;;;;;;5015973;28;20026;-69
2021/10/23 02:57:03;;;;;;;6.97;1.52;;;6.90;99.90;;;;;;5013903;28;20092;-70
2021/10/23 02:59:29;;;;;;;5.82;1.42;;;7.00;99.90;;;;;;5022397;28;20017;-68
2021/10/23 03:01:55;;;;;;;7.90;1.58;;;7.00;99.90;;;;;;5012452;28;20022;-71
2021/10/23 03:04:20;;;;;;;8.85;1.33;;;7.00;99.90;;;;;;5016325;28;20022;-69
2021/10/23 03:06:46;;;;;;;7.95;1.35;;;7.00;99.90;;;;;;5001059;28;20053;-69
2021/10/23 03:09:14;;;;;;;9.40;1.73;;;7.00;99.90;;;;;;5011896;28;20392;-69
2021/10/23 03:11:39;;;;;;;6.45;1.65;;;7.00;99.90;;;;;;5015167;28;20027;-70
2021/10/23 03:14:05;;;;;;;10.65;1.85;;;6.90;99.90;;;;;;5025077;28;20030;-72
2021/10/23 03:16:31;;;;;;;10.52;1.77;;;7.00;99.90;;;;;;5012640;28;20033;-69
2021/10/23 03:18:57;;;;;;;15.77;1.52;;;6.90;99.90;;;;;;5018271;28;20030;-69
2021/10/23 03:21:23;;;;;;;12.23;2.55;;;6.90;99.90;;;;;;5010964;28;20395;-69
2021/10/23 03:23:48;;;;;;;10.13;1.67;;;6.90;99.90;;;;;;5014707;28;20037;-69
2021/10/23 03:26:15;;;;;;;13.35;1.60;;;6.90;99.90;;;;;;5015493;28;20025;-70
2021/10/23 03:28:42;;;;;;;9.95;1.48;;;6.90;99.90;;;;;;5017895;28;20125;-69
2021/10/23 03:31:08;;;;;;;11.23;1.85;;;6.80;99.90;;;;;;5013948;28;20034;-69
2021/10/23 03:33:33;;;;;;;5.90;1.58;;;6.80;99.90;;;;;;5014478;28;20033;-69
2021/10/23 03:35:59;;;;;;;15.40;1.73;;;6.80;99.90;;;;;;5012629;28;20021;-69
2021/10/23 03:38:25;;;;;;;9.23;1.38;;;6.80;99.90;;;;;;5018719;28;20029;-69
2021/10/23 03:40:50;;;;;;;14.00;1.75;;;6.70;99.90;;;;;;5012262;28;20096;-68
2021/10/23 03:43:16;;;;;;;11.00;2.22;;;6.70;99.90;;;;;;5020766;28;20026;-69
2021/10/23 03:45:42;;;;;;;6.55;1.27;;;6.70;99.90;;;;;;5023686;28;20021;-73
2021/10/23 03:48:07;;;;;;;8.13;1.92;;;6.60;99.90;;;;;;5027997;28;20100;-71
2021/10/23 03:50:33;;;;;;;13.88;2.08;;;6.70;99.90;;;;;;5014354;28;20018;-70
2021/10/23 03:52:59;;;;;;;9.30;1.63;;;6.60;99.90;;;;;;5016449;28;20026;-69
2021/10/23 03:55:25;;;;;;;7.55;2.33;;;6.60;99.90;;;;;;5011568;28;20779;-70
2021/10/23 03:57:51;;;;;;;9.50;1.40;;;6.60;99.90;;;;;;5017186;28;20037;-69
2021/10/23 04:00:17;;;;;;;10.25;1.38;;;6.60;99.90;;;;;;5018846;28;20472;-70
2021/10/23 04:02:45;;;;;;;11.98;1.42;;;6.70;99.90;;;;;;5026645;28;20033;-69
2021/10/23 04:05:11;;;;;;;8.05;1.35;;;6.70;99.90;;;;;;5022103;28;20036;-69
2021/10/23 04:07:37;;;;;;;13.30;2.08;;;6.70;99.90;;;;;;5010714;28;20034;-69
2021/10/23 04:10:04;;;;;;;7.45;1.63;;;6.70;99.90;;;;;;5011489;28;20739;-71
2021/10/23 04:12:31;;;;;;;8.75;1.23;;;6.80;99.90;;;;;;5017162;28;20017;-68
2021/10/23 04:14:57;;;;;;;6.20;1.10;;;6.80;99.90;;;;;;5013157;28;20033;-71
2021/10/23 04:17:23;;;;;;;9.40;1.30;;;6.80;99.90;;;;;;5015377;28;20432;-71
2021/10/23 04:19:48;;;;;;;9.10;1.73;;;6.80;99.90;;;;;;5019811;28;20029;-68
2021/10/23 04:22:14;;;;;;;5.20;1.10;;;6.80;99.90;;;;;;5012337;28;20507;-69
2021/10/23 04:24:40;;;;;;;13.02;1.52;;;6.80;99.90;;;;;;5015867;28;20053;-70
2021/10/23 04:27:05;;;;;;;8.60;1.55;;;6.80;99.90;;;;;;5012479;28;20071;-68
2021/10/23 04:29:31;;;;;;;10.77;1.90;;;6.80;99.90;;;;;;5013259;28;20639;-70
2021/10/23 04:31:57;;;;;;;10.02;1.75;;;6.80;99.90;;;;;;5014830;28;20475;-69
2021/10/23 04:34:23;;;;;;;15.93;1.80;;;6.70;99.90;;;;;;5014783;28;20048;-70
2021/10/23 04:36:49;;;;;;;9.68;1.80;;;6.60;99.90;;;;;;5011642;28;20022;-69
2021/10/23 04:39:15;;;;;;;8.95;1.10;;;6.70;99.90;;;;;;5016277;28;20092;-69
2021/10/23 04:41:42;;;;;;;6.28;1.50;;;6.60;99.90;;;;;;5009783;28;20077;-69
2021/10/23 04:44:07;;;;;;;7.00;1.15;;;6.60;99.90;;;;;;5012926;28;20034;-69
2021/10/23 04:46:33;;;;;;;6.75;1.33;;;6.60;99.90;;;;;;5018490;28;20505;-70
2021/10/23 04:48:59;;;;;;;7.55;1.40;;;6.60;99.90;;;;;;5011225;28;20026;-69
2021/10/23 04:51:24;;;;;;;8.73;1.80;;;6.60;99.90;;;;;;5009947;28;20061;-69
2021/10/23 04:53:50;;;;;;;17.45;2.15;;;6.60;99.90;;;;;;5018818;28;20101;-69
2021/10/23 04:56:17;;;;;;;7.78;1.73;;;6.60;99.90;;;;;;5011577;28;20022;-71
2021/10/23 04:58:43;;;;;;;13.30;1.35;;;6.60;99.90;;;;;;5017284;28;20554;-70
2021/10/23 05:01:09;;;;;;;10.60;1.67;;;6.60;99.90;;;;;;5015361;28;20101;-69
2021/10/23 05:03:34;;;;;;;12.10;1.52;;;6.50;99.90;;;;;;5011531;28;20073;-69
2021/10/23 05:06:00;;;;;;;10.25;1.70;;;6.60;99.90;;;;;;5013509;28;20041;-70
2021/10/23 05:08:26;;;;;;;12.20;1.67;;;6.60;99.90;;;;;;5012252;28;20029;-69
2021/10/23 05:10:52;;;;;;;9.70;1.90;;;6.60;99.90;;;;;;5010603;28;20444;-70
2021/10/23 05:13:17;;;;;;;7.18;1.80;;;6.60;99.90;;;;;;5009476;28;20025;-69
2021/10/23 05:15:43;;;;;;;14.95;2.28;;;6.50;99.90;;;;;;5011893;28;20026;-69
2021/10/23 05:18:09;;;;;;;10.52;2.03;;;6.50;99.90;;;;;;5017881;28;20083;-69
2021/10/23 05:20:35;;;;;;;10.13;1.52;;;6.60;99.90;;;;;;5016860;28;20022;-70
2021/10/23 05:23:00;;;;;;;9.80;1.98;;;6.60;99.90;;;;;;4997000;28;20068;-70
2021/10/23 05:25:26;;;;;;;8.15;1.70;;;6.60;99.90;;;;;;5010930;28;20113;-68
2021/10/23 05:27:52;;;;;;;9.85;1.63;;;6.60;99.90;;;;;;5012866;28;20052;-69
2021/10/23 05:30:18;;;;;;;16.40;2.47;;;6.60;99.90;;;;;;5016154;28;20022;-69
2021/10/23 05:32:43;;;;;;;10.07;1.40;;;6.60;99.90;;;;;;5015130;28;20037;-69
2021/10/23 05:35:09;;;;;;;12.00;1.70;;;6.60;99.90;;;;;;5020380;28;20025;-69
2021/10/23 05:37:35;;;;;;;7.25;1.88;;;6.60;99.90;;;;;;5016070;28;21592;-69
2021/10/23 05:40:01;;;;;;;11.88;1.60;;;6.60;99.90;;;;;;5014409;28;20018;-69
2021/10/23 05:42:27;;;;;;;15.82;2.33;;;6.60;99.90;;;;;;5014649;28;20373;-70
2021/10/23 05:44:52;;;;;;;14.30;2.47;;;6.60;99.90;;;;;;5021326;28;20029;-70
2021/10/23 05:47:18;;;;;;;12.18;2.40;;;6.60;99.90;;;;;;5014574;28;20026;-68
2021/10/23 05:49:44;;;;;;;9.80;1.45;;;6.60;99.90;;;;;;5014326;28;20480;-69
2021/10/23 05:52:10;;;;;;;9.68;1.55;;;6.60;99.90;;;;;;5016915;28;20496;-69
2021/10/23 05:54:39;;;;;;;12.27;1.80;;;6.60;99.90;;;;;;5014097;28;20423;-69
2021/10/23 05:57:06;;;;;;;10.35;1.83;;;6.60;99.90;;;;;;5017038;28;20093;-70
2021/10/23 05:59:32;;;;;;;9.15;1.10;;;6.50;99.90;;;;;;5013005;28;20391;-69
2021/10/23 06:02:08;;;;;;;9.95;1.30;;;6.50;99.90;;;;;;5014920;28;20104;-70
2021/10/23 06:04:34;;;;;;;14.80;2.47;;;6.50;99.90;;;;;;5018930;28;20026;-70
2021/10/23 06:07:00;;;;;;;8.38;2.20;;;6.40;99.90;;;;;;5016864;28;20033;-69
2021/10/23 06:09:25;;;;;;;10.23;2.22;;;6.50;99.90;;;;;;5019676;28;20531;-70
2021/10/23 06:11:51;;;;;;;10.68;1.67;;;6.50;99.90;;;;;;5013789;28;20021;-69
2021/10/23 06:14:17;;;;;;;11.43;2.17;;;6.50;99.90;;;;;;5018635;28;20026;-69
2021/10/23 06:16:42;;;;;;;9.07;1.98;;;6.50;99.90;;;;;;5018380;28;20112;-69
2021/10/23 06:19:08;;;;;;;11.52;2.17;;;6.50;99.90;;;;;;5024498;28;20438;-69
2021/10/23 06:21:34;;;;;;;7.45;1.80;;;6.50;99.90;;;;;;5013192;28;20400;-70
2021/10/23 06:23:59;;;;;;;10.90;2.03;;;6.50;99.90;;;;;;5017937;28;20033;-69
2021/10/23 06:26:25;;;;;;;11.13;1.73;;;6.40;99.90;;;;;;5018874;28;20026;-69
2021/10/23 06:28:50;;;;;;;14.18;1.75;;;6.40;99.90;;;;;;5014095;28;20053;-69
2021/10/23 06:31:16;;;;;;;9.35;2.03;;;6.50;99.90;;;;;;5012890;28;20037;-69
2021/10/23 06:33:42;;;;;;;7.18;1.33;;;6.50;99.90;;;;;;5017638;28;20033;-71
2021/10/23 06:36:07;;;;;;;8.68;2.22;;;6.60;99.90;;;;;;5014678;28;20040;-69
2021/10/23 06:38:33;;;;;;;13.38;3.00;;;6.70;99.90;;;;;;4999155;28;20037;-70
2021/10/23 06:40:59;;;;;;;7.80;2.33;;;6.70;99.90;;;;;;5018285;28;20022;-69
2021/10/23 06:43:25;;;;;;;9.15;2.05;;;6.80;99.90;;;;;;5015365;28;20076;-69
2021/10/23 06:45:52;;;;;;;10.48;1.65;;;6.90;99.90;;;;;;5013361;28;20038;-69
2021/10/23 06:48:17;;;;;;;6.90;1.70;;;7.00;99.90;;;;;;5018120;28;20112;-70
2021/10/23 06:50:43;;;;;;;10.00;1.80;;;7.00;99.90;;;;;;5012930;28;20089;-68
2021/10/23 06:53:09;;;;;;;11.88;2.42;;;7.00;99.90;;;;;;5006623;28;20034;-70
2021/10/23 06:55:34;;;;;;;9.88;1.67;;;7.10;99.90;;;;;;5019202;28;20018;-71
2021/10/23 06:58:00;;;;;;;8.60;2.03;;;7.10;99.90;;;;;;5013760;28;20037;-69
2021/10/23 07:00:26;;;;;;;18.08;2.50;;;7.10;99.90;;;;;;5013665;28;20513;-70
2021/10/23 07:02:51;;;;;;;12.27;2.17;;;7.10;99.90;;;;;;5025964;28;20061;-70
2021/10/23 07:05:20;;;;;;;8.48;1.98;;;7.10;99.90;;;;;;5019935;28;20025;-71
2021/10/23 07:07:46;;;;;;;6.28;1.80;;;7.10;99.90;;;;;;5021666;28;20025;-69
2021/10/23 07:10:12;;;;;;;11.75;1.55;;;7.10;99.90;;;;;;5012322;28;20539;-69
2021/10/23 07:12:38;;;;;;;8.68;1.70;;;7.10;99.90;;;;;;5011682;28;20057;-71
2021/10/23 07:15:05;;;;;;;13.23;2.42;;;7.10;99.90;;;;;;5022331;28;20017;-70
2021/10/23 07:17:31;;;;;;;7.72;2.40;;;7.20;99.90;;;;;;5017562;28;20495;-69
2021/10/23 07:19:57;;;;;;;14.13;2.28;;;7.20;99.90;;;;;;5000769;28;20025;-70
2021/10/23 07:22:23;;;;;;;7.00;2.15;;;7.20;99.90;;;;;;5015987;28;20064;-69
2021/10/23 07:24:50;;;;;;;10.90;1.77;;;7.20;99.90;;;;;;5017044;28;20519;-69
2021/10/23 07:27:15;;;;;;;9.38;1.98;;;7.20;99.90;;;;;;5018598;28;20369;-71
2021/10/23 07:29:41;;;;;;;9.85;1.50;;;7.50;99.90;;;;;;5013433;28;20144;-70
2021/10/23 07:32:08;;;;;;;10.90;2.47;;;7.80;99.90;;;;;;5020507;28;20029;-69
2021/10/23 07:34:34;;;;;;;7.43;1.95;;;7.80;99.90;;;;;;5014661;28;20037;-71
2021/10/23 07:37:00;;;;;;;11.68;2.10;;;7.70;99.90;;;;;;5011483;28;20049;-69
2021/10/23 07:39:25;;;;;;;15.27;1.63;;;7.60;99.90;;;;;;5012716;28;20589;-70
2021/10/23 07:41:51;;;;;;;10.07;1.50;;;7.50;99.90;;;;;;5014916;28;20028;-69
2021/10/23 07:44:17;;;;;;;10.82;2.20;;;7.50;99.90;;;;;;5014041;28;20091;-69
2021/10/23 07:46:43;;;;;;;9.25;1.65;;;7.50;99.90;;;;;;5013105;28;20453;-70
2021/10/23 07:49:10;;;;;;;10.23;1.98;;;7.40;99.90;;;;;;5010186;28;20368;-70
2021/10/23 07:51:36;;;;;;;10.73;2.13;;;7.40;99.90;;;;;;5010479;28;20053;-69
2021/10/23 07:54:04;;;;;;;9.80;1.70;;;7.40;99.90;;;;;;5017521;28;20017;-69
2021/10/23 07:56:32;;;;;;;5.28;1.35;;;7.50;99.90;;;;;;5009582;28;20082;-69
2021/10/23 07:58:58;;;;;;;6.28;1.80;;;7.50;99.90;;;;;;5009581;28;20029;-69
2021/10/23 08:01:24;;;;;;;12.93;2.17;;;7.60;99.90;;;;;;5012625;28;20541;-70
2021/10/23 08:03:50;;;;;;;8.82;1.75;;;7.60;99.90;;;;;;5009855;28;20038;-70
2021/10/23 08:06:16;;;;;;;6.18;1.55;;;7.70;99.90;;;;;;5007820;28;20053;-69
2021/10/23 08:08:41;;;;;;;6.25;1.85;;;7.70;99.90;;;;;;5009793;28;20034;-70
2021/10/23 08:11:07;;;;;;;5.38;1.77;;;7.80;99.90;;;;;;5013181;28;20041;-71
2021/10/23 08:13:33;;;;;;;11.05;1.63;;;7.90;99.90;;;;;;5012390;28;20037;-71
2021/10/23 08:16:00;;;;;;;5.28;1.55;;;7.90;99.90;;;;;;5010320;28;20032;-71
2021/10/23 08:18:26;;;;;;;9.13;1.70;;;8.00;99.90;;;;;;5011693;28;20030;-70
2021/10/23 08:20:52;;;;;;;9.15;1.50;;;8.10;99.90;;;;;;5012366;28;20096;-71
2021/10/23 08:23:18;;;;;;;4.60;1.40;;;8.10;99.90;;;;;;5020102;28;20050;-71
2021/10/23 08:25:43;;;;;;;9.02;1.95;;;8.10;99.90;;;;;;5014464;28;20611;-71
2021/10/23 08:28:09;;;;;;;13.73;2.83;;;8.20;99.90;;;;;;5018125;28;20527;-72
2021/10/23 08:30:35;;;;;;;8.10;1.75;;;8.20;99.90;;;;;;5019912;28;20026;-71
2021/10/23 08:33:01;;;;;;;4.70;1.52;;;8.30;99.90;;;;;;5014609;28;20112;-70
2021/10/23 08:35:27;;;;;;;7.28;1.35;;;8.30;99.90;;;;;;5016586;28;20101;-71
2021/10/23 08:37:54;;;;;;;13.07;1.80;;;8.30;99.90;;;;;;5012739;28;20026;-70
2021/10/23 08:40:21;;;;;;;11.60;1.52;;;8.30;99.90;;;;;;5021123;28;20034;-71
2021/10/23 08:42:47;;;;;;;10.05;2.03;;;8.30;99.90;;;;;;5018422;28;20026;-70
2021/10/23 08:45:15;;;;;;;5.57;1.48;;;8.30;99.90;;;;;;5016872;28;20029;-70
2021/10/23 08:47:45;;;;;;;7.35;1.60;;;8.40;99.90;;;;;;5010945;28;20109;-71
2021/10/23 08:50:17;;;;;;;10.27;1.60;;;8.50;99.90;;;;;;5012313;28;20492;-70
2021/10/23 08:52:47;;;;;;;9.77;1.60;;;8.50;99.90;;;;;;5013436;28;20663;-71
2021/10/23 08:55:13;;;;;;;7.50;1.77;;;8.60;99.90;;;;;;5006682;28;20487;-70
2021/10/23 08:57:39;;;;;;;7.30;2.28;;;8.70;99.90;;;;;;5018801;28;20037;-70
2021/10/23 09:00:06;;;;;;;9.88;2.78;;;8.80;99.90;;;;;;5024539;28;20030;-70
2021/10/23 09:02:32;;;;;;;8.30;1.75;;;8.70;99.90;;;;;;5021412;28;20124;-70
2021/10/23 09:04:58;;;;;;;6.72;2.00;;;8.70;99.90;;;;;;5014306;28;20534;-70
2021/10/23 09:07:25;;;;;;;9.73;2.67;;;8.70;99.90;;;;;;5015158;28;20035;-69
2021/10/23 09:09:56;;;;;;;8.43;2.05;;;8.80;99.90;;;;;;5019925;28;20022;-72
2021/10/23 09:12:24;;;;;;;5.13;1.20;;;8.80;99.90;;;;;;5013562;28;20014;-70
2021/10/23 09:15:04;;;;;;;4.60;1.33;;;8.80;99.90;;;;;;4999080;28;20033;-71
2021/10/23 09:17:33;;;;;;;7.22;1.70;;;8.70;99.90;;;;;;5008620;28;20057;-72
2021/10/23 09:20:08;;;;;;;10.30;2.50;;;8.70;99.90;;;;;;5019656;28;20089;-74
2021/10/23 09:22:42;;;;;;;6.60;1.60;;;8.80;99.90;;;;;;5019032;28;20432;-73
2021/10/23 09:25:27;;;;;;;7.03;1.50;;;8.90;99.90;;;;;;5011879;28;20041;-72
2021/10/23 09:28:04;;;;;;;4.50;1.50;;;9.10;99.90;;;;;;5003881;28;20037;-72
2021/10/23 09:30:34;;;;;;;6.47;1.35;;;9.30;99.90;;;;;;5022297;28;20041;-73
2021/10/23 09:33:12;;;;;;;8.40;1.90;;;9.40;99.90;;;;;;5020378;28;20487;-72
2021/10/23 09:35:43;;;;;;;7.28;1.85;;;9.60;99.90;;;;;;5018174;28;20935;-73
2021/10/23 09:38:12;;;;;;;7.53;1.80;;;9.60;99.90;;;;;;5009574;28;20026;-74
2021/10/23 09:40:39;;;;;;;9.50;1.88;;;9.60;99.90;;;;;;5021341;28;20037;-73
2021/10/23 09:43:17;;;;;;;5.95;1.10;;;9.70;99.90;;;;;;5014693;28;20076;-72
2021/10/23 09:45:55;;;;;;;9.57;2.00;;;9.80;99.90;;;;;;5012356;28;20030;-71
2021/10/23 09:48:51;;;;;;;6.28;1.50;;;9.70;99.90;;;;;;5015421;28;20515;-71
2021/10/23 09:51:20;;;;;;;7.93;1.45;;;9.60;99.90;;;;;;5020824;28;20052;-71
2021/10/23 09:53:51;;;;;;;5.00;1.20;;;9.60;99.90;;;;;;5024521;28;20029;-71
2021/10/23 09:56:18;;;;;;;6.75;1.33;;;9.50;99.90;;;;;;5013276;28;20482;-71
2021/10/23 09:59:04;;;;;;;7.93;1.80;;;9.60;99.90;;;;;;5013994;28;20026;-72
2021/10/23 10:01:32;;;;;;;7.80;1.70;;;9.60;99.90;;;;;;5020128;28;20452;-71
2021/10/23 10:04:03;;;;;;;10.30;2.13;;;9.80;99.90;;;;;;5018823;28;20025;-72
2021/10/23 10:06:29;;;;;;;11.25;1.50;;;10.00;99.90;;;;;;5014149;28;20034;-72
2021/10/23 10:08:55;;;;;;;8.48;2.55;;;10.30;99.90;;;;;;5020170;28;20038;-72
2021/10/23 10:11:22;;;;;;;8.40;1.63;;;10.70;99.90;;;;;;5018321;28;20032;-71
2021/10/23 10:13:49;;;;;;;7.75;1.80;;;11.50;99.90;;;;;;5014464;28;20028;-72
2021/10/23 10:16:15;;;;;;;5.00;1.52;;;12.40;99.90;;;;;;5025980;28;20032;-73
2021/10/23 10:18:42;;;;;;;9.27;1.92;;;13.50;99.90;;;;;;5011792;28;20030;-70
2021/10/23 10:21:12;;;;;;;6.07;1.52;;;14.10;99.90;;;;;;5019073;28;20069;-72
2021/10/23 10:23:43;;;;;;;11.37;3.10;;;14.30;99.90;;;;;;5021402;28;20073;-71
2021/10/23 10:26:18;;;;;;;5.82;1.42;;;13.80;99.90;;;;;;5011175;28;20112;-70
2021/10/23 10:31:56;;;;;;;6.18;1.42;;;13.30;99.90;;;;;;5015522;28;20057;-70
2021/10/23 10:34:49;;;;;;;9.57;2.13;;;12.60;99.90;;;;;;5014321;28;20083;-70
2021/10/23 10:43:07;;;;;;;8.77;2.25;;;12.50;99.90;;;;;;5012545;28;20049;-70
2021/10/23 10:45:43;;;;;;;6.68;1.55;;;13.80;99.90;;;;;;5023622;28;20034;-69
2021/10/23 10:48:32;;;;;;;6.85;1.52;;;15.00;99.90;;;;;;5011746;28;20095;-70
2021/10/23 10:51:00;;;;;;;11.15;2.22;;;15.20;99.70;;;;;;5007596;28;20029;-71
2021/10/23 10:53:33;;;;;;;8.55;2.25;;;14.60;95.00;;;;;;5016393;28;20022;-70
2021/10/23 10:55:58;;;;;;;6.78;1.45;;;13.90;99.20;;;;;;5017242;28;20026;-70
2021/10/23 10:58:48;;;;;;;7.65;1.60;;;13.30;99.90;;;;;;5013434;28;20076;-70
2021/10/23 11:01:26;;;;;;;10.63;1.90;;;13.20;99.90;;;;;;5015171;28;20026;-70
2021/10/23 11:03:51;;;;;;;7.20;1.65;;;13.90;99.90;;;;;;5017378;28;20049;-70
2021/10/23 11:09:16;;;;;;;6.57;1.73;;;14.30;97.10;;;;;;5010432;28;20026;-70
2021/10/23 11:11:44;;;;;;;4.60;1.80;;;13.70;99.90;;;;;;5012719;28;20097;-71
2021/10/23 11:14:28;;;;;;;7.55;1.77;;;13.30;99.90;;;;;;5014157;28;20025;-70
2021/10/23 11:19:39;;;;;;;6.35;1.50;;;12.60;99.90;;;;;;5010569;28;20033;-70
2021/10/23 11:22:12;;;;;;;10.30;2.15;;;12.40;99.90;;;;;;5006913;28;20091;-76
2021/10/23 11:24:42;;;;;;;7.13;2.05;;;12.10;99.90;;;;;;5021751;28;20034;-71
2021/10/23 11:27:24;;;;;;;4.90;1.30;;;11.90;99.90;;;;;;5016740;28;20116;-71
2021/10/23 11:30:18;;;;;;;10.60;5.07;;;11.90;99.90;;;;;;5013076;28;20025;-71
2021/10/23 11:33:05;;;;;;;8.00;2.38;;;11.70;99.90;;;;;;5011262;28;20411;-71
2021/10/23 11:35:51;;;;;;;9.93;1.67;;;11.60;99.90;;;;;;5018085;28;20079;-70
2021/10/23 11:38:26;;;;;;;8.15;1.48;;;11.50;99.90;;;;;;5021035;28;20061;-70
2021/10/23 11:41:02;;;;;;;9.05;1.55;;;11.50;99.90;;;;;;5015334;28;20021;-72
2021/10/23 11:43:29;;;;;;;10.85;2.08;;;11.60;99.90;;;;;;5013848;28;20069;-71
2021/10/23 11:45:55;;;;;;;8.85;1.58;;;11.60;99.90;;;;;;5014732;28;20492;-73
2021/10/23 11:48:20;;;;;;;7.65;1.90;;;11.60;99.90;;;;;;5012947;28;20036;-72
2021/10/23 11:50:49;;;;;;;12.35;2.45;;;11.40;99.90;;;;;;5013775;28;20419;-74
2021/10/23 11:53:30;;;;;;;9.25;1.80;;;11.40;99.90;;;;;;5018599;28;20092;-72
2021/10/23 11:56:05;;;;;;;;;;;11.50;99.90;;;;;;5021012;28;20394;-72
2021/10/23 11:58:37;;;;;;;7.68;1.80;;;11.40;99.90;;;;;;5016908;28;19952;-68
2021/10/23 12:01:08;;;;;;;8.73;1.77;;;11.40;99.90;;;;;;5002913;28;20493;-74
2021/10/23 12:03:39;;;;;;;7.70;1.70;;;11.40;99.90;;;;;;5018390;28;20033;-69
2021/10/23 12:06:15;;;;;;;4.93;1.38;;;11.40;99.90;;;;;;5021667;28;20025;-73
2021/10/23 12:08:41;;;;;;;6.85;1.45;;;11.50;99.90;;;;;;5013748;28;20037;-72
2021/10/23 12:11:17;;;;;;;6.50;1.50;;;11.50;99.90;;;;;;5017973;28;20025;-71
2021/10/23 12:13:49;;;;;;;7.90;1.65;;;11.50;99.90;;;;;;5012532;28;20016;-70
2021/10/23 12:16:17;;;;;;;10.77;1.75;;;11.50;99.90;;;;;;5015731;28;20026;-72
2021/10/23 12:18:45;;;;;;;5.47;1.55;;;11.50;99.90;;;;;;5016571;28;20026;-70
2021/10/23 12:21:21;;;;;;;6.63;1.75;;;11.50;99.90;;;;;;5013747;28;20029;-70
2021/10/23 12:23:53;;;;;;;6.28;1.90;;;11.50;99.90;;;;;;5018651;28;20300;-70
2021/10/23 12:26:27;;;;;;;8.60;1.58;;;11.50;99.90;;;;;;4995376;28;20049;-70
2021/10/23 12:29:00;;;;;;;6.78;1.45;;;11.40;99.90;;;;;;5025801;28;20030;-70
2021/10/23 12:32:03;;;;;;;5.68;1.75;;;11.40;99.90;;;;;;5017914;28;20037;-71
2021/10/23 12:34:48;;;;;;;7.35;1.20;;;11.40;99.90;;;;;;5007946;28;20026;-71
2021/10/23 12:37:14;;;;;;;5.38;1.20;;;11.30;99.90;;;;;;5017429;28;20034;-70
2021/10/23 12:39:40;;;;;;;6.82;1.80;;;11.20;99.90;;;;;;5016871;28;20073;-70
2021/10/23 12:42:05;;;;;;;6.90;1.30;;;11.10;99.90;;;;;;5016517;28;20058;-70
2021/10/23 12:44:31;;;;;;;4.93;1.70;;;11.00;99.90;;;;;;5019807;28;20040;-70
2021/10/23 12:46:57;;;;;;;6.38;1.40;;;10.90;99.90;;;;;;5019736;28;20041;-70
2021/10/23 12:49:23;;;;;;;9.57;1.23;;;10.90;99.90;;;;;;5020940;28;20032;-70
2021/10/23 12:51:50;;;;;;;9.48;2.30;;;10.80;99.90;;;;;;5019580;28;20408;-70
2021/10/23 12:54:17;;;;;;;5.45;1.80;;;10.80;99.90;;;;;;5019318;28;20029;-72
2021/10/23 12:56:43;;;;;;;4.70;2.35;;;10.70;99.90;;;;;;5021687;28;20095;-72
2021/10/23 12:59:10;;;;;;;6.88;1.73;;;10.70;99.90;;;;;;5020558;28;20065;-71
2021/10/23 13:01:36;;;;;;;5.70;2.22;;;10.80;99.90;;;;;;5018818;28;20454;-72
2021/10/23 13:04:03;;;;;;;8.02;1.95;;;10.80;99.90;;;;;;5019106;28;20029;-70
2021/10/23 13:06:29;;;;;;;5.82;1.10;;;10.90;99.90;;;;;;5013260;28;20053;-70
2021/10/23 13:08:54;;;;;;;6.97;1.65;;;11.00;99.90;;;;;;5020538;28;20044;-70